createdAt,value
2023-09-08T00:02:29.498Z,4.53
2023-09-08T00:04:57.240Z,4.35
2023-09-08T00:07:24.001Z,4.25
2023-09-08T00:09:50.783Z,4.60
2023-09-08T00:12:18.648Z,4.80
2023-09-08T00:14:45.427Z,5.10
2023-09-08T00:17:13.195Z,4.88
2023-09-08T00:19:40.045Z,4.55
2023-09-08T00:22:09.820Z,4.32
2023-09-08T00:24:37.513Z,4.32
2023-09-08T00:27:05.447Z,4.70
2023-09-08T00:29:32.276Z,4.78
2023-09-08T00:31:59.946Z,4.55
2023-09-08T00:34:26.935Z,4.63
2023-09-08T00:36:53.721Z,4.82
2023-09-08T00:39:20.628Z,4.70
2023-09-08T00:41:47.334Z,4.78
2023-09-08T00:44:14.029Z,4.80
2023-09-08T00:46:41.478Z,4.93
2023-09-08T00:49:10.102Z,5.07
2023-09-08T00:51:38.893Z,4.70
2023-09-08T00:54:07.698Z,4.72
2023-09-08T00:56:36.551Z,4.90
2023-09-08T00:59:03.762Z,5.15
2023-09-08T01:01:31.001Z,5.05
2023-09-08T01:03:57.905Z,5.40
2023-09-08T01:06:25.125Z,4.80
2023-09-08T01:08:52.115Z,4.93
2023-09-08T01:11:20.965Z,5.18
2023-09-08T01:13:48.927Z,5.30
2023-09-08T01:16:15.742Z,4.73
2023-09-08T01:18:42.588Z,5.00
2023-09-08T01:21:34.822Z,5.05
2023-09-08T01:24:22.860Z,5.45
2023-09-08T01:26:49.958Z,5.00
2023-09-08T01:29:17.866Z,4.93
2023-09-08T01:31:44.670Z,5.20
2023-09-08T01:34:13.214Z,5.00
2023-09-08T01:36:39.806Z,5.32
2023-09-08T01:39:06.801Z,4.93
2023-09-08T01:41:34.575Z,5.03
2023-09-08T01:44:06.302Z,4.80
2023-09-08T01:46:34.994Z,4.88
2023-09-08T01:49:02.202Z,4.72
2023-09-08T01:51:29.332Z,5.00
2023-09-08T01:53:56.007Z,4.93
2023-09-08T01:56:24.103Z,4.78
2023-09-08T01:58:50.868Z,4.75
2023-09-08T02:01:17.681Z,5.35
2023-09-08T02:03:44.377Z,4.90
2023-09-08T02:06:11.017Z,5.57
2023-09-08T02:08:38.666Z,4.80
2023-09-08T02:11:08.238Z,5.07
2023-09-08T02:13:58.803Z,4.88
2023-09-08T02:16:25.614Z,5.30
2023-09-08T02:18:52.544Z,5.57
2023-09-08T02:21:19.298Z,5.13
2023-09-08T02:23:46.007Z,4.60
2023-09-08T02:26:13.728Z,4.80
2023-09-08T02:28:41.547Z,5.20
2023-09-08T02:31:08.348Z,5.30
2023-09-08T02:33:36.112Z,4.97
2023-09-08T02:36:06.143Z,5.22
2023-09-08T02:38:35.149Z,5.13
2023-09-08T02:41:02.454Z,4.80
2023-09-08T02:43:29.891Z,4.97
2023-09-08T02:45:58.319Z,4.80
2023-09-08T02:48:26.202Z,4.70
2023-09-08T02:50:54.811Z,5.38
2023-09-08T02:53:21.603Z,5.10
2023-09-08T02:55:48.200Z,4.73
2023-09-08T02:58:14.879Z,5.15
2023-09-08T03:00:41.796Z,4.90
2023-09-08T03:03:08.774Z,4.40
2023-09-08T03:05:36.152Z,4.85
2023-09-08T03:08:02.890Z,5.37
2023-09-08T03:10:29.820Z,4.80
2023-09-08T03:12:57.731Z,5.13
2023-09-08T03:15:24.454Z,4.97
2023-09-08T03:17:51.200Z,5.25
2023-09-08T03:20:18.048Z,4.67
2023-09-08T03:22:44.703Z,5.22
2023-09-08T03:25:11.342Z,5.05
2023-09-08T03:27:38.999Z,5.13
2023-09-08T03:30:06.844Z,4.65
2023-09-08T03:32:33.667Z,4.83
2023-09-08T03:35:00.860Z,4.82
2023-09-08T03:37:27.914Z,5.13
2023-09-08T03:39:54.727Z,5.10
2023-09-08T03:42:22.531Z,5.18
2023-09-08T03:44:50.279Z,4.97
2023-09-08T03:47:16.985Z,4.90
2023-09-08T03:49:43.707Z,4.78
2023-09-08T03:52:10.417Z,4.90
2023-09-08T03:54:38.281Z,5.40
2023-09-08T03:57:05.266Z,5.23
2023-09-08T03:59:32.988Z,4.88
2023-09-08T04:01:59.622Z,4.88
2023-09-08T04:04:26.268Z,5.50
2023-09-08T04:06:52.907Z,4.78
2023-09-08T04:09:19.542Z,4.70
2023-09-08T04:11:46.196Z,4.47
2023-09-08T04:14:12.936Z,5.35
2023-09-08T04:16:39.530Z,5.30
2023-09-08T04:19:07.190Z,4.60
2023-09-08T04:21:33.904Z,4.63
2023-09-08T04:24:02.545Z,4.80
2023-09-08T04:26:30.696Z,5.00
2023-09-08T04:28:57.445Z,4.65
2023-09-08T04:31:24.527Z,4.82
2023-09-08T04:33:51.382Z,4.77
2023-09-08T04:36:18.083Z,5.00
2023-09-08T04:38:45.655Z,4.88
2023-09-08T04:41:12.626Z,5.05
2023-09-08T04:43:39.600Z,5.45
2023-09-08T04:46:06.324Z,5.20
2023-09-08T04:48:33.077Z,4.78
2023-09-08T04:50:59.970Z,4.50
2023-09-08T04:53:26.852Z,4.80
2023-09-08T04:55:53.634Z,4.80
2023-09-08T04:58:20.488Z,4.57
2023-09-08T05:00:48.458Z,4.03
2023-09-08T05:03:15.337Z,4.75
2023-09-08T05:05:42.294Z,4.50
2023-09-08T05:08:10.108Z,4.65
2023-09-08T05:10:36.878Z,4.20
2023-09-08T05:13:05.718Z,4.70
2023-09-08T05:15:35.958Z,4.35
2023-09-08T05:18:04.286Z,4.80
2023-09-08T05:20:31.435Z,4.65
2023-09-08T05:22:58.319Z,4.40
2023-09-08T05:25:24.941Z,4.65
2023-09-08T05:27:52.044Z,4.40
2023-09-08T05:30:18.890Z,5.10
2023-09-08T05:32:45.648Z,4.93
2023-09-08T05:35:12.424Z,4.50
2023-09-08T05:37:39.755Z,4.50
2023-09-08T05:40:07.954Z,4.35
2023-09-08T05:42:35.311Z,4.50
2023-09-08T05:45:01.987Z,4.45
2023-09-08T05:47:28.698Z,4.70
2023-09-08T05:49:56.450Z,4.57
2023-09-08T05:52:23.121Z,4.53
2023-09-08T05:54:49.862Z,4.50
2023-09-08T05:57:16.440Z,4.47
2023-09-08T05:59:43.158Z,4.50
2023-09-08T06:02:09.964Z,4.20
2023-09-08T06:04:37.453Z,4.40
2023-09-08T06:07:04.713Z,4.75
2023-09-08T06:09:33.487Z,4.93
2023-09-08T06:12:00.199Z,4.87
2023-09-08T06:14:26.814Z,4.25
2023-09-08T06:16:53.546Z,4.63
2023-09-08T06:19:20.192Z,4.65
2023-09-08T06:21:47.016Z,4.47
2023-09-08T06:24:13.779Z,4.87
2023-09-08T06:26:43.134Z,4.53
2023-09-08T06:29:10.034Z,4.18
2023-09-08T06:31:36.671Z,4.72
2023-09-08T06:34:03.510Z,4.30
2023-09-08T06:36:30.633Z,4.53
2023-09-08T06:38:57.430Z,4.80
2023-09-08T06:41:28.234Z,4.28
2023-09-08T06:43:55.975Z,4.30
2023-09-08T06:46:23.549Z,4.38
2023-09-08T06:48:53.261Z,4.07
2023-09-08T06:51:20.294Z,4.30
2023-09-08T06:53:57.487Z,4.45
2023-09-08T06:56:28.025Z,4.75
2023-09-08T06:58:54.810Z,4.68
2023-09-08T07:01:21.632Z,4.53
2023-09-08T07:03:48.686Z,4.70
2023-09-08T07:06:17.365Z,4.72
2023-09-08T07:08:44.217Z,4.82
2023-09-08T07:11:11.227Z,4.97
2023-09-08T07:13:38.070Z,4.53
2023-09-08T07:16:05.411Z,4.82
2023-09-08T07:18:37.170Z,4.50
2023-09-08T07:21:05.094Z,5.30
2023-09-08T07:23:32.953Z,4.70
2023-09-08T07:25:59.852Z,4.77
2023-09-08T07:28:30.098Z,4.65
2023-09-08T07:31:06.200Z,4.97
2023-09-08T07:33:36.772Z,5.75
2023-09-08T07:36:07.944Z,5.53
2023-09-08T07:38:35.938Z,5.03
2023-09-08T07:41:03.690Z,4.90
2023-09-08T07:43:31.464Z,4.70
2023-09-08T07:45:58.209Z,5.00
2023-09-08T07:48:24.923Z,5.07
2023-09-08T07:50:51.622Z,5.20
2023-09-08T07:53:18.343Z,5.28
2023-09-08T07:55:45.074Z,5.05
2023-09-08T07:58:11.803Z,4.85
2023-09-08T08:00:38.480Z,5.13
2023-09-08T08:03:05.609Z,5.20
2023-09-08T08:05:32.281Z,5.68
2023-09-08T08:07:58.922Z,4.88
2023-09-08T08:10:25.828Z,5.38
2023-09-08T08:12:52.546Z,5.32
2023-09-08T08:15:24.174Z,5.53
2023-09-08T08:17:51.058Z,5.07
2023-09-08T08:20:20.510Z,5.03
2023-09-08T08:22:47.641Z,4.78
2023-09-08T08:25:14.829Z,5.78
2023-09-08T08:27:41.937Z,5.37
2023-09-08T08:30:09.217Z,5.30
2023-09-08T08:32:35.962Z,5.65
2023-09-08T08:35:02.634Z,5.05
2023-09-08T08:37:29.332Z,5.07
2023-09-08T08:39:55.981Z,5.10
2023-09-08T08:42:23.697Z,5.07
2023-09-08T08:44:51.133Z,4.95
2023-09-08T08:47:19.046Z,5.53
2023-09-08T08:49:48.752Z,5.07
2023-09-08T08:52:16.197Z,4.97
2023-09-08T08:54:43.973Z,4.80
2023-09-08T08:57:12.795Z,4.72
2023-09-08T08:59:42.511Z,5.13
2023-09-08T09:02:12.076Z,4.45
2023-09-08T09:04:39.503Z,5.10
2023-09-08T09:07:08.263Z,5.20
2023-09-08T09:09:35.360Z,4.97
2023-09-08T09:12:03.966Z,5.43
2023-09-08T09:14:35.070Z,5.10
2023-09-08T09:17:02.484Z,4.90
2023-09-08T09:19:30.935Z,4.63
2023-09-08T09:21:58.411Z,4.85
2023-09-08T09:24:38.211Z,5.35
2023-09-08T09:27:08.673Z,5.93
2023-09-08T09:29:44.412Z,5.60
2023-09-08T09:32:11.114Z,5.53
2023-09-08T09:34:49.129Z,5.40
2023-09-08T09:37:15.848Z,5.30
2023-09-08T09:39:42.743Z,5.30
2023-09-08T09:42:09.481Z,5.13
2023-09-08T09:44:36.131Z,4.85
2023-09-08T09:47:03.006Z,5.22
2023-09-08T09:49:33.088Z,5.35
2023-09-08T09:52:00.178Z,5.70
2023-09-08T09:54:26.901Z,5.60
2023-09-08T09:56:54.000Z,5.05
2023-09-08T09:59:20.984Z,5.10
2023-09-08T10:01:47.816Z,5.32
2023-09-08T10:04:16.743Z,5.55
2023-09-08T10:06:44.643Z,5.10
2023-09-08T10:09:15.066Z,5.38
2023-09-08T10:11:51.117Z,5.43
2023-09-08T10:14:19.101Z,5.78
2023-09-08T10:16:50.710Z,5.20
2023-09-08T10:19:18.243Z,5.77
2023-09-08T10:21:49.532Z,5.45
2023-09-08T10:24:24.084Z,4.90
2023-09-08T10:26:59.686Z,4.90
2023-09-08T10:29:28.364Z,5.38
2023-09-08T10:31:56.918Z,5.13
2023-09-08T10:34:25.374Z,5.15
2023-09-08T10:36:52.765Z,5.10
2023-09-08T10:39:36.571Z,5.63
2023-09-08T10:42:18.376Z,5.10
2023-09-08T10:44:45.684Z,4.80
2023-09-08T10:47:12.544Z,4.75
2023-09-08T10:49:39.806Z,5.57
2023-09-08T10:52:11.047Z,5.50
2023-09-08T10:54:51.514Z,5.43
2023-09-08T10:57:21.298Z,5.40
2023-09-08T10:59:55.741Z,5.25
2023-09-08T11:02:36.827Z,5.35
2023-09-08T11:05:06.058Z,5.40
2023-09-08T11:07:33.736Z,5.80
2023-09-08T11:10:03.935Z,5.43
2023-09-08T11:12:31.273Z,4.80
2023-09-08T11:14:58.246Z,5.63
2023-09-08T11:17:29.137Z,5.05
2023-09-08T11:19:56.054Z,5.43
2023-09-08T11:22:28.372Z,5.37
2023-09-08T11:25:01.506Z,5.40
2023-09-08T11:27:29.952Z,4.97
2023-09-08T11:29:57.566Z,5.60
2023-09-08T11:32:25.799Z,5.45
2023-09-08T11:34:52.395Z,5.37
2023-09-08T11:37:19.447Z,5.15
2023-09-08T11:39:47.311Z,5.30
2023-09-08T11:42:15.908Z,5.43
2023-09-08T11:44:44.000Z,5.93
2023-09-08T11:47:11.721Z,5.83
2023-09-08T11:49:39.513Z,5.20
2023-09-08T11:52:07.199Z,5.68
2023-09-08T11:54:35.562Z,5.30
2023-09-08T11:57:04.849Z,5.30
2023-09-08T11:59:33.463Z,5.10
2023-09-08T12:02:00.357Z,5.63
2023-09-08T12:04:27.159Z,5.50
2023-09-08T12:06:56.833Z,5.35
2023-09-08T12:09:24.813Z,5.00
2023-09-08T12:11:51.538Z,6.23
2023-09-08T12:14:18.214Z,5.50
2023-09-08T12:16:45.322Z,5.50
2023-09-08T12:19:32.004Z,5.43
2023-09-08T12:22:01.478Z,5.18
2023-09-08T12:24:50.255Z,5.63
2023-09-08T12:27:20.854Z,4.75
2023-09-08T12:29:58.600Z,5.22
2023-09-08T12:32:26.483Z,4.60
2023-09-08T12:34:53.771Z,4.85
2023-09-08T12:37:24.816Z,4.70
2023-09-08T12:39:52.081Z,4.65
2023-09-08T12:42:19.387Z,5.32
2023-09-08T12:44:46.419Z,4.90
2023-09-08T12:47:15.656Z,4.68
2023-09-08T12:49:42.402Z,5.00
2023-09-08T12:52:10.580Z,4.25
2023-09-08T12:54:37.354Z,4.47
2023-09-08T12:57:06.669Z,4.90
2023-09-08T12:59:33.720Z,4.20
2023-09-08T13:02:00.378Z,4.83
2023-09-08T13:04:26.971Z,4.90
2023-09-08T13:06:53.716Z,4.43
2023-09-08T13:09:21.497Z,4.75
2023-09-08T13:11:48.374Z,4.50
2023-09-08T13:14:15.100Z,5.43
2023-09-08T13:16:41.780Z,4.57
2023-09-08T13:19:08.440Z,4.60
2023-09-08T13:21:35.153Z,4.65
2023-09-08T13:24:07.148Z,4.75
2023-09-08T13:26:33.848Z,4.73
2023-09-08T13:29:00.594Z,4.45
2023-09-08T13:31:27.453Z,4.78
2023-09-08T13:33:54.128Z,5.35
2023-09-08T13:36:20.861Z,5.57
2023-09-08T13:38:47.477Z,4.13
2023-09-08T13:41:14.132Z,4.60
2023-09-08T13:43:41.463Z,4.65
2023-09-08T13:46:09.434Z,4.45
2023-09-08T13:48:36.385Z,4.88
2023-09-08T13:51:06.461Z,5.00
2023-09-08T13:56:09.027Z,4.88
2023-09-08T13:58:48.460Z,5.35
2023-09-08T14:04:02.530Z,4.53
2023-09-08T14:06:36.334Z,4.60
2023-09-08T14:14:22.899Z,4.90
2023-09-08T14:16:49.603Z,5.17
2023-09-08T14:19:16.268Z,4.57
2023-09-08T14:21:42.890Z,5.03
2023-09-08T14:24:09.701Z,4.60
2023-09-08T14:26:36.453Z,4.88
2023-09-08T14:29:04.158Z,5.20
2023-09-08T14:31:31.135Z,5.10
2023-09-08T14:33:58.674Z,5.10
2023-09-08T14:36:25.450Z,5.03
2023-09-08T14:38:52.132Z,5.25
2023-09-08T14:41:18.966Z,4.97
2023-09-08T14:43:45.698Z,5.50
2023-09-08T14:46:13.042Z,4.85
2023-09-08T14:48:40.033Z,4.57
2023-09-08T14:51:06.751Z,5.05
2023-09-08T14:53:33.404Z,4.30
2023-09-08T14:56:00.158Z,4.90
2023-09-08T14:58:32.752Z,5.05
2023-09-08T15:01:04.397Z,5.10
2023-09-08T15:03:33.014Z,4.53
2023-09-08T15:05:59.860Z,5.17
2023-09-08T15:08:27.481Z,4.82
2023-09-08T15:10:54.151Z,4.63
2023-09-08T15:13:23.813Z,4.90
2023-09-08T15:15:50.983Z,4.90
2023-09-08T15:18:18.332Z,4.40
2023-09-08T15:20:53.540Z,5.22
2023-09-08T15:23:20.921Z,4.60
2023-09-08T15:25:58.901Z,4.72
2023-09-08T15:28:26.223Z,4.88
2023-09-08T15:30:55.037Z,4.40
2023-09-08T15:33:23.580Z,4.78
2023-09-08T15:35:52.492Z,4.82
2023-09-08T15:38:19.507Z,4.82
2023-09-08T15:41:11.876Z,4.97
2023-09-08T15:43:41.854Z,4.80
2023-09-08T15:46:09.233Z,5.05
2023-09-08T15:48:36.413Z,5.22
2023-09-08T15:51:03.645Z,4.85
2023-09-08T15:53:30.844Z,5.10
2023-09-08T15:55:57.562Z,5.03
2023-09-08T15:58:24.346Z,4.68
2023-09-08T16:00:51.149Z,4.93
2023-09-08T16:03:19.052Z,5.13
2023-09-08T16:05:45.859Z,4.80
2023-09-08T16:08:12.571Z,5.07
2023-09-08T16:10:39.211Z,4.65
2023-09-08T16:13:05.945Z,4.50
2023-09-08T16:15:32.616Z,4.43
2023-09-08T16:18:01.862Z,4.55
2023-09-08T16:20:28.553Z,4.33
2023-09-08T16:22:55.278Z,4.63
2023-09-08T16:25:21.898Z,4.53
2023-09-08T16:27:48.526Z,4.38
2023-09-08T16:30:15.281Z,4.80
2023-09-08T16:32:41.991Z,5.13
2023-09-08T16:35:09.164Z,4.53
2023-09-08T16:37:35.870Z,4.22
2023-09-08T16:40:03.112Z,4.88
2023-09-08T16:42:29.929Z,5.30
2023-09-08T16:44:56.545Z,4.50
2023-09-08T16:47:26.377Z,5.28
2023-09-08T16:49:54.084Z,4.75
2023-09-08T16:52:23.100Z,5.05
2023-09-08T16:54:49.999Z,4.82
2023-09-08T16:57:19.578Z,4.80
2023-09-08T16:59:46.288Z,4.85
2023-09-08T17:02:12.908Z,4.78
2023-09-08T17:04:39.598Z,4.60
2023-09-08T17:07:06.248Z,4.53
2023-09-08T17:09:33.078Z,4.73
2023-09-08T17:11:59.804Z,4.68
2023-09-08T17:14:27.570Z,4.85
2023-09-08T17:16:54.168Z,4.97
2023-09-08T17:19:20.807Z,5.45
2023-09-08T17:21:47.523Z,5.57
2023-09-08T17:24:15.096Z,5.07
2023-09-08T17:26:41.847Z,4.70
2023-09-08T17:29:09.693Z,5.00
2023-09-08T17:31:36.650Z,4.70
2023-09-08T17:34:03.379Z,5.20
2023-09-08T17:36:30.121Z,5.30
2023-09-08T17:38:57.022Z,5.72
2023-09-08T17:41:23.601Z,5.13
2023-09-08T17:43:50.280Z,5.32
2023-09-08T17:46:17.015Z,5.50
2023-09-08T17:48:43.867Z,5.70
2023-09-08T17:51:10.617Z,5.40
2023-09-08T17:53:38.402Z,5.22
2023-09-08T17:56:05.443Z,5.15
2023-09-08T17:58:32.037Z,5.20
2023-09-08T18:00:58.804Z,5.22
2023-09-08T18:03:25.694Z,5.20
2023-09-08T18:05:52.469Z,5.47
2023-09-08T18:08:19.083Z,5.20
2023-09-08T18:10:47.477Z,5.37
2023-09-08T18:13:14.313Z,4.60
2023-09-08T18:15:41.130Z,5.18
2023-09-08T18:18:07.933Z,5.20
2023-09-08T18:20:35.156Z,4.93
2023-09-08T18:23:01.905Z,4.80
2023-09-08T18:25:28.685Z,5.50
2023-09-08T18:27:55.595Z,4.95
2023-09-08T18:30:22.359Z,4.90
2023-09-08T18:32:49.405Z,5.03
2023-09-08T18:35:16.353Z,4.77
2023-09-08T18:37:43.065Z,5.35
2023-09-08T18:40:11.508Z,4.85
2023-09-08T18:42:39.813Z,5.18
2023-09-08T18:45:06.978Z,5.30
2023-09-08T18:47:33.777Z,5.03
2023-09-08T18:50:00.585Z,5.57
2023-09-08T18:52:27.263Z,4.95
2023-09-08T18:54:53.944Z,4.88
2023-09-08T18:57:20.528Z,5.10
2023-09-08T18:59:49.667Z,4.60
2023-09-08T19:02:16.327Z,4.90
2023-09-08T19:04:42.999Z,4.80
2023-09-08T19:07:09.712Z,5.25
2023-09-08T19:09:36.306Z,4.90
2023-09-08T19:12:04.110Z,5.03
2023-09-08T19:14:30.895Z,5.40
2023-09-08T19:17:01.559Z,5.55
2023-09-08T19:19:28.420Z,5.63
2023-09-08T19:21:55.374Z,5.45
2023-09-08T19:24:25.511Z,5.97
2023-09-08T19:26:52.230Z,5.43
2023-09-08T19:29:19.989Z,5.47
2023-09-08T19:31:46.738Z,5.80
2023-09-08T19:34:13.439Z,5.45
2023-09-08T19:36:40.835Z,5.60
2023-09-08T19:39:08.259Z,5.63
2023-09-08T19:41:34.958Z,5.65
2023-09-08T19:44:01.590Z,5.65
2023-09-08T19:46:28.246Z,5.18
2023-09-08T19:48:55.492Z,5.30
2023-09-08T19:51:23.102Z,5.30
2023-09-08T19:53:50.003Z,5.43
2023-09-08T19:56:16.664Z,5.28
2023-09-08T19:58:43.564Z,5.75
2023-09-08T20:01:17.777Z,5.30
2023-09-08T20:03:45.396Z,5.72
2023-09-08T20:06:18.740Z,4.90
2023-09-08T20:08:45.409Z,5.57
2023-09-08T20:11:12.084Z,5.40
2023-09-08T20:13:39.082Z,5.67
2023-09-08T20:16:07.895Z,5.55
2023-09-08T20:18:36.078Z,5.60
2023-09-08T20:21:04.449Z,6.03
2023-09-08T20:23:32.651Z,5.70
2023-09-08T20:26:00.050Z,5.40
2023-09-08T20:28:26.843Z,5.60
2023-09-08T20:31:13.075Z,5.95
2023-09-08T20:33:40.958Z,6.45
2023-09-08T20:36:07.618Z,5.80
2023-09-08T20:38:34.443Z,6.17
2023-09-08T20:41:01.455Z,5.70
2023-09-08T20:43:28.150Z,6.00
2023-09-08T20:45:55.007Z,5.53
2023-09-08T20:48:22.315Z,6.18
2023-09-08T20:50:50.225Z,6.20
2023-09-08T20:53:16.893Z,5.55
2023-09-08T20:55:43.563Z,6.32
2023-09-08T20:58:10.269Z,6.00
2023-09-08T21:00:37.224Z,6.40
2023-09-08T21:03:04.023Z,6.47
2023-09-08T21:05:30.712Z,6.15
2023-09-08T21:07:57.400Z,6.50
2023-09-08T21:10:25.132Z,6.18
2023-09-08T21:12:51.776Z,6.30
2023-09-08T21:15:18.447Z,6.07
2023-09-08T21:17:45.185Z,6.55
2023-09-08T21:20:12.050Z,6.47
2023-09-08T21:22:38.798Z,6.35
2023-09-08T21:25:05.704Z,6.43
2023-09-08T21:27:32.293Z,6.50
2023-09-08T21:29:59.006Z,6.28
2023-09-08T21:32:25.646Z,6.50
2023-09-08T21:34:53.863Z,6.68
2023-09-08T21:37:21.019Z,6.15
2023-09-08T21:39:47.839Z,6.30
2023-09-08T21:42:14.485Z,7.10
2023-09-08T21:44:41.124Z,6.57
2023-09-08T21:47:07.759Z,6.35
2023-09-08T21:49:34.699Z,6.50
2023-09-08T21:52:01.469Z,6.90
2023-09-08T21:54:28.347Z,6.60
2023-09-08T21:56:55.087Z,6.30
2023-09-08T21:59:21.794Z,6.45
2023-09-08T22:01:48.473Z,7.10
2023-09-08T22:04:15.241Z,6.20
2023-09-08T22:06:42.020Z,6.40
2023-09-08T22:09:08.624Z,6.97
2023-09-08T22:11:35.315Z,6.38
2023-09-08T22:14:02.168Z,6.95
2023-09-08T22:16:31.607Z,7.00
2023-09-08T22:18:58.329Z,6.32
2023-09-08T22:21:25.054Z,6.55
2023-09-08T22:23:51.856Z,6.68
2023-09-08T22:26:19.798Z,6.65
2023-09-08T22:28:50.181Z,6.83
2023-09-08T22:31:17.256Z,6.55
2023-09-08T22:33:44.282Z,7.35
2023-09-08T22:36:11.396Z,6.93
2023-09-08T22:38:38.215Z,6.63
2023-09-08T22:41:04.971Z,6.67
2023-09-08T22:43:31.648Z,6.80
2023-09-08T22:45:58.269Z,6.57
2023-09-08T22:48:24.975Z,6.90
2023-09-08T22:50:51.643Z,6.60
2023-09-08T22:53:18.736Z,6.73
2023-09-08T22:55:45.827Z,6.90
2023-09-08T22:58:15.577Z,6.43
2023-09-08T23:00:42.356Z,6.72
2023-09-08T23:03:12.176Z,6.32
2023-09-08T23:05:39.119Z,6.70
2023-09-08T23:08:06.063Z,7.03
2023-09-08T23:10:32.810Z,6.88
2023-09-08T23:12:59.410Z,7.13
2023-09-08T23:15:26.194Z,6.55
2023-09-08T23:17:53.408Z,7.10
2023-09-08T23:20:20.116Z,6.82
2023-09-08T23:22:46.823Z,6.70
2023-09-08T23:25:13.711Z,6.90
2023-09-08T23:27:40.566Z,6.95
2023-09-08T23:30:08.003Z,7.03
2023-09-08T23:32:34.758Z,7.07
2023-09-08T23:35:05.822Z,7.28
2023-09-08T23:37:32.555Z,7.07
2023-09-08T23:39:59.172Z,6.97
2023-09-08T23:42:25.845Z,6.93
2023-09-08T23:44:52.584Z,6.72
2023-09-08T23:47:19.234Z,6.30
2023-09-08T23:49:45.933Z,6.60
2023-09-08T23:52:12.567Z,6.53
2023-09-08T23:54:39.197Z,6.90
2023-09-08T23:57:05.961Z,7.10
2023-09-08T23:59:32.844Z,7.43
